sensor_id;sensor_type;location;lat;lon;timestamp;pressure;altitude;pressure_sealevel;temperature;humidity
73700;BME280;62005;50.082;8.988;2022-08-21T00:00:39;100472.81;;;18.79;57.72
73700;BME280;62005;50.082;8.988;2022-08-21T00:03:06;100463.81;;;18.74;57.68
73700;BME280;62005;50.082;8.988;2022-08-21T00:05:35;100480.53;;;18.77;57.54
73700;BME280;62005;50.082;8.988;2022-08-21T00:08:02;100479.69;;;18.77;57.38
73700;BME280;62005;50.082;8.988;2022-08-21T00:10:27;100469.28;;;18.74;57.97
73700;BME280;62005;50.082;8.988;2022-08-21T00:12:53;100463.25;;;18.67;58.21
73700;BME280;62005;50.082;8.988;2022-08-21T00:15:23;100458.59;;;18.67;57.46
73700;BME280;62005;50.082;8.988;2022-08-21T00:17:48;100454.47;;;18.65;56.96
73700;BME280;62005;50.082;8.988;2022-08-21T00:20:15;100460.50;;;18.72;57.92
73700;BME280;62005;50.082;8.988;2022-08-21T00:22:41;100443.53;;;18.55;56.95
73700;BME280;62005;50.082;8.988;2022-08-21T00:25:07;100464.06;;;18.57;58.06
73700;BME280;62005;50.082;8.988;2022-08-21T00:27:33;100457.19;;;18.50;57.97
73700;BME280;62005;50.082;8.988;2022-08-21T00:29:59;100443.47;;;18.35;58.40
73700;BME280;62005;50.082;8.988;2022-08-21T00:32:26;100452.81;;;18.44;59.08
73700;BME280;62005;50.082;8.988;2022-08-21T00:34:52;100448.94;;;18.35;60.07
73700;BME280;62005;50.082;8.988;2022-08-21T00:37:18;100454.13;;;18.21;60.71
73700;BME280;62005;50.082;8.988;2022-08-21T00:39:44;100442.91;;;18.17;60.72
73700;BME280;62005;50.082;8.988;2022-08-21T00:42:10;100444.53;;;18.18;62.23
73700;BME280;62005;50.082;8.988;2022-08-21T00:44:39;100449.75;;;18.25;61.24
73700;BME280;62005;50.082;8.988;2022-08-21T00:47:05;100447.81;;;18.20;61.47
73700;BME280;62005;50.082;8.988;2022-08-21T00:49:30;100424.81;;;18.06;61.46
73700;BME280;62005;50.082;8.988;2022-08-21T00:51:59;100434.13;;;18.15;59.67
73700;BME280;62005;50.082;8.988;2022-08-21T00:54:26;100443.47;;;18.25;59.65
73700;BME280;62005;50.082;8.988;2022-08-21T00:56:59;100447.28;;;18.23;60.01
73700;BME280;62005;50.082;8.988;2022-08-21T00:59:25;100447.81;;;18.20;61.68
73700;BME280;62005;50.082;8.988;2022-08-21T01:01:53;100425.88;;;18.00;61.64
73700;BME280;62005;50.082;8.988;2022-08-21T01:04:20;100437.38;;;17.97;62.11
73700;BME280;62005;50.082;8.988;2022-08-21T01:06:45;100448.59;;;18.01;61.69
73700;BME280;62005;50.082;8.988;2022-08-21T01:09:12;100441.72;;;17.93;61.82
73700;BME280;62005;50.082;8.988;2022-08-21T01:11:38;100446.13;;;17.94;62.44
73700;BME280;62005;50.082;8.988;2022-08-21T01:14:04;100439.53;;;17.85;62.66
73700;BME280;62005;50.082;8.988;2022-08-21T01:16:29;100433.47;;;17.78;62.41
73700;BME280;62005;50.082;8.988;2022-08-21T01:18:55;100449.66;;;17.90;61.66
73700;BME280;62005;50.082;8.988;2022-08-21T01:21:24;100441.19;;;17.86;62.06
73700;BME280;62005;50.082;8.988;2022-08-21T01:23:52;100431.84;;;17.77;63.82
73700;BME280;62005;50.082;8.988;2022-08-21T01:26:22;100445.84;;;17.91;62.27
73700;BME280;62005;50.082;8.988;2022-08-21T01:28:54;100446.66;;;17.91;63.65
73700;BME280;62005;50.082;8.988;2022-08-21T01:31:24;100457.03;;;17.89;63.29
73700;BME280;62005;50.082;8.988;2022-08-21T01:33:49;100441.16;;;17.76;62.64
73700;BME280;62005;50.082;8.988;2022-08-21T01:36:14;100438.94;;;17.78;62.29
73700;BME280;62005;50.082;8.988;2022-08-21T01:38:40;100439.53;;;17.85;61.47
73700;BME280;62005;50.082;8.988;2022-08-21T01:41:05;100454.03;;;17.91;62.86
73700;BME280;62005;50.082;8.988;2022-08-21T01:43:32;100439.50;;;17.80;63.36
73700;BME280;62005;50.082;8.988;2022-08-21T01:45:57;100446.63;;;17.81;62.74
73700;BME280;62005;50.082;8.988;2022-08-21T01:48:23;100432.34;;;17.69;62.52
73700;BME280;62005;50.082;8.988;2022-08-21T01:50:48;100446.06;;;17.79;62.44
73700;BME280;62005;50.082;8.988;2022-08-21T01:53:13;100446.91;;;17.80;62.83
73700;BME280;62005;50.082;8.988;2022-08-21T01:55:41;100432.91;;;17.71;62.46
73700;BME280;62005;50.082;8.988;2022-08-21T01:58:06;100440.59;;;17.74;62.60
73700;BME280;62005;50.082;8.988;2022-08-21T02:00:32;100435.66;;;17.71;62.31
73700;BME280;62005;50.082;8.988;2022-08-21T02:02:57;100433.47;;;17.68;61.90
73700;BME280;62005;50.082;8.988;2022-08-21T02:05:22;100403.81;;;17.45;63.92
73700;BME280;62005;50.082;8.988;2022-08-21T02:07:50;100436.69;;;17.60;64.36
73700;BME280;62005;50.082;8.988;2022-08-21T02:10:21;100430.38;;;17.50;63.84
73700;BME280;62005;50.082;8.988;2022-08-21T02:12:46;100439.84;;;17.42;64.38
73700;BME280;62005;50.082;8.988;2022-08-21T02:15:12;100433.81;;;17.35;64.22
73700;BME280;62005;50.082;8.988;2022-08-21T02:17:43;100449.13;;;17.41;64.11
73700;BME280;62005;50.082;8.988;2022-08-21T02:20:14;100441.44;;;17.33;63.84
73700;BME280;62005;50.082;8.988;2022-08-21T02:22:40;100443.63;;;17.31;64.10
73700;BME280;62005;50.082;8.988;2022-08-21T02:25:06;100409.66;;;17.12;64.05
73700;BME280;62005;50.082;8.988;2022-08-21T02:27:38;100429.91;;;17.21;64.49
73700;BME280;62005;50.082;8.988;2022-08-21T02:30:04;100423.06;;;17.19;64.64
73700;BME280;62005;50.082;8.988;2022-08-21T02:32:30;100415.59;;;17.09;63.98
73700;BME280;62005;50.082;8.988;2022-08-21T02:34:55;100414.00;;;17.13;63.59
73700;BME280;62005;50.082;8.988;2022-08-21T02:37:21;100424.16;;;17.23;63.80
73700;BME280;62005;50.082;8.988;2022-08-21T02:39:46;100417.84;;;17.12;65.01
73700;BME280;62005;50.082;8.988;2022-08-21T02:42:11;100421.88;;;17.05;65.22
73700;BME280;62005;50.082;8.988;2022-08-21T02:44:37;100428.69;;;17.02;65.79
73700;BME280;62005;50.082;8.988;2022-08-21T02:47:02;100428.97;;;17.01;65.09
73700;BME280;62005;50.082;8.988;2022-08-21T02:49:27;100436.31;;;17.00;65.46
73700;BME280;62005;50.082;8.988;2022-08-21T02:51:53;100401.19;;;16.72;65.72
73700;BME280;62005;50.082;8.988;2022-08-21T02:54:18;100439.03;;;16.95;66.70
73700;BME280;62005;50.082;8.988;2022-08-21T02:56:43;100431.84;;;16.84;66.18
73700;BME280;62005;50.082;8.988;2022-08-21T02:59:09;100426.88;;;16.81;65.57
73700;BME280;62005;50.082;8.988;2022-08-21T03:01:34;100421.97;;;16.78;65.88
73700;BME280;62005;50.082;8.988;2022-08-21T03:03:59;100429.09;;;16.79;64.89
73700;BME280;62005;50.082;8.988;2022-08-21T03:06:24;100428.25;;;16.78;66.00
73700;BME280;62005;50.082;8.988;2022-08-21T03:08:50;100425.78;;;16.77;65.92
73700;BME280;62005;50.082;8.988;2022-08-21T03:11:16;100426.59;;;16.77;66.18
73700;BME280;62005;50.082;8.988;2022-08-21T03:13:42;100431.25;;;16.77;65.93
73700;BME280;62005;50.082;8.988;2022-08-21T03:16:08;100433.41;;;16.75;66.30
73700;BME280;62005;50.082;8.988;2022-08-21T03:18:34;100429.00;;;16.69;66.55
73700;BME280;62005;50.082;8.988;2022-08-21T03:21:00;100433.84;;;16.62;67.63
73700;BME280;62005;50.082;8.988;2022-08-21T03:23:25;100434.38;;;16.59;68.87
73700;BME280;62005;50.082;8.988;2022-08-21T03:25:51;100440.84;;;16.53;68.00
73700;BME280;62005;50.082;8.988;2022-08-21T03:28:19;100447.13;;;16.53;68.09
73700;BME280;62005;50.082;8.988;2022-08-21T03:30:48;100428.69;;;16.39;67.90
73700;BME280;62005;50.082;8.988;2022-08-21T03:33:15;100443.53;;;16.48;67.39
73700;BME280;62005;50.082;8.988;2022-08-21T03:35:42;100440.28;;;16.46;67.85
73700;BME280;62005;50.082;8.988;2022-08-21T03:38:08;100444.56;;;16.42;68.00
73700;BME280;62005;50.082;8.988;2022-08-21T03:40:33;100429.22;;;16.36;68.08
73700;BME280;62005;50.082;8.988;2022-08-21T03:42:59;100442.59;;;16.37;68.04
73700;BME280;62005;50.082;8.988;2022-08-21T03:45:25;100450.00;;;16.42;67.79
73700;BME280;62005;50.082;8.988;2022-08-21T03:47:56;100443.41;;;16.38;68.37
73700;BME280;62005;50.082;8.988;2022-08-21T03:50:24;100434.06;;;16.29;68.20
73700;BME280;62005;50.082;8.988;2022-08-21T03:52:50;100439.53;;;16.29;68.93
73700;BME280;62005;50.082;8.988;2022-08-21T03:55:16;100453.72;;;16.31;68.16
73700;BME280;62005;50.082;8.988;2022-08-21T03:57:41;100442.19;;;16.24;68.20
73700;BME280;62005;50.082;8.988;2022-08-21T04:00:07;100456.72;;;16.29;68.26
73700;BME280;62005;50.082;8.988;2022-08-21T04:02:35;100450.94;;;16.26;67.04
73700;BME280;62005;50.082;8.988;2022-08-21T04:05:01;100447.13;;;16.27;67.36
73700;BME280;62005;50.082;8.988;2022-08-21T04:07:26;100460.81;;;16.32;67.73
73700;BME280;62005;50.082;8.988;2022-08-21T04:09:52;100447.03;;;16.17;68.25
73700;BME280;62005;50.082;8.988;2022-08-21T04:12:17;100468.38;;;16.25;68.54
73700;BME280;62005;50.082;8.988;2022-08-21T04:14:42;100459.59;;;16.18;67.95
73700;BME280;62005;50.082;8.988;2022-08-21T04:17:08;100473.28;;;16.23;67.96
73700;BME280;62005;50.082;8.988;2022-08-21T04:19:33;100465.53;;;16.15;68.61
73700;BME280;62005;50.082;8.988;2022-08-21T04:21:58;100475.44;;;16.21;69.23
73700;BME280;62005;50.082;8.988;2022-08-21T04:24:23;100472.16;;;16.19;68.54
73700;BME280;62005;50.082;8.988;2022-08-21T04:26:49;100472.41;;;16.17;69.65
73700;BME280;62005;50.082;8.988;2022-08-21T04:29:15;100484.16;;;16.18;68.85
73700;BME280;62005;50.082;8.988;2022-08-21T04:31:40;100490.66;;;16.17;68.31
73700;BME280;62005;50.082;8.988;2022-08-21T04:34:05;100475.78;;;16.03;68.76
73700;BME280;62005;50.082;8.988;2022-08-21T04:36:33;100489.22;;;16.09;68.09
73700;BME280;62005;50.082;8.988;2022-08-21T04:38:58;100487.88;;;16.12;67.71
73700;BME280;62005;50.082;8.988;2022-08-21T04:41:24;100491.75;;;16.16;68.70
73700;BME280;62005;50.082;8.988;2022-08-21T04:43:49;100485.09;;;16.07;68.11
73700;BME280;62005;50.082;8.988;2022-08-21T04:46:15;100505.91;;;16.13;67.93
73700;BME280;62005;50.082;8.988;2022-08-21T04:48:40;100500.94;;;16.10;67.97
73700;BME280;62005;50.082;8.988;2022-08-21T04:51:24;100483.66;;;15.99;69.02
73700;BME280;62005;50.082;8.988;2022-08-21T04:53:55;100506.41;;;16.10;68.29
73700;BME280;62005;50.082;8.988;2022-08-21T04:56:41;100514.16;;;16.18;68.07
73700;BME280;62005;50.082;8.988;2022-08-21T04:59:14;100524.03;;;16.24;68.49
73700;BME280;62005;50.082;8.988;2022-08-21T05:01:41;100521.34;;;16.29;68.53
73700;BME280;62005;50.082;8.988;2022-08-21T05:04:11;100515.97;;;16.34;68.74
73700;BME280;62005;50.082;8.988;2022-08-21T05:06:38;100514.34;;;16.38;68.66
73700;BME280;62005;50.082;8.988;2022-08-21T05:09:06;100520.44;;;16.45;69.18
73700;BME280;62005;50.082;8.988;2022-08-21T05:11:34;100524.38;;;16.54;68.33
73700;BME280;62005;50.082;8.988;2022-08-21T05:14:00;100516.25;;;16.59;68.20
73700;BME280;62005;50.082;8.988;2022-08-21T05:16:26;100527.81;;;16.71;69.54
73700;BME280;62005;50.082;8.988;2022-08-21T05:18:51;100526.31;;;16.85;68.32
73700;BME280;62005;50.082;8.988;2022-08-21T05:21:17;100527.47;;;16.94;69.35
73700;BME280;62005;50.082;8.988;2022-08-21T05:23:42;100536.31;;;17.06;69.04
73700;BME280;62005;50.082;8.988;2022-08-21T05:26:08;100530.97;;;17.21;68.27
73700;BME280;62005;50.082;8.988;2022-08-21T05:28:33;100528.59;;;17.30;67.83
73700;BME280;62005;50.082;8.988;2022-08-21T05:30:59;100531.13;;;17.41;68.16
73700;BME280;62005;50.082;8.988;2022-08-21T05:33:24;100515.91;;;17.50;68.74
73700;BME280;62005;50.082;8.988;2022-08-21T05:35:51;100508.59;;;17.61;67.75
73700;BME280;62005;50.082;8.988;2022-08-21T05:38:17;100521.00;;;17.83;68.07
73700;BME280;62005;50.082;8.988;2022-08-21T05:40:42;100517.25;;;17.99;66.73
73700;BME280;62005;50.082;8.988;2022-08-21T05:43:09;100534.88;;;18.34;66.75
73700;BME280;62005;50.082;8.988;2022-08-21T05:45:34;100530.06;;;18.56;66.10
73700;BME280;62005;50.082;8.988;2022-08-21T05:48:12;100529.00;;;18.77;65.61
73700;BME280;62005;50.082;8.988;2022-08-21T05:50:38;100519.69;;;18.98;65.08
73700;BME280;62005;50.082;8.988;2022-08-21T05:53:04;100504.06;;;19.08;64.13
73700;BME280;62005;50.082;8.988;2022-08-21T05:55:29;100510.34;;;19.24;63.28
73700;BME280;62005;50.082;8.988;2022-08-21T05:57:55;100523.47;;;19.57;63.08
73700;BME280;62005;50.082;8.988;2022-08-21T06:00:21;100496.59;;;19.64;62.28
73700;BME280;62005;50.082;8.988;2022-08-21T06:02:48;100506.31;;;20.00;61.70
73700;BME280;62005;50.082;8.988;2022-08-21T06:05:16;100518.34;;;20.24;61.32
73700;BME280;62005;50.082;8.988;2022-08-21T06:07:41;100510.06;;;20.29;60.63
73700;BME280;62005;50.082;8.988;2022-08-21T06:10:07;100510.03;;;20.39;60.60
73700;BME280;62005;50.082;8.988;2022-08-21T06:12:32;100525.81;;;20.62;60.07
73700;BME280;62005;50.082;8.988;2022-08-21T06:14:58;100527.31;;;20.84;59.45
73700;BME280;62005;50.082;8.988;2022-08-21T06:17:23;100514.28;;;20.99;58.74
73700;BME280;62005;50.082;8.988;2022-08-21T06:19:53;100529.63;;;21.34;58.25
73700;BME280;62005;50.082;8.988;2022-08-21T06:22:19;100526.53;;;21.69;57.50
73700;BME280;62005;50.082;8.988;2022-08-21T06:24:44;100519.03;;;22.03;55.53
73700;BME280;62005;50.082;8.988;2022-08-21T06:27:10;100510.28;;;22.38;54.90
73700;BME280;62005;50.082;8.988;2022-08-21T06:29:35;100519.25;;;22.67;53.61
73700;BME280;62005;50.082;8.988;2022-08-21T06:32:01;100516.63;;;22.94;53.05
73700;BME280;62005;50.082;8.988;2022-08-21T06:34:27;100495.69;;;22.93;52.69
73700;BME280;62005;50.082;8.988;2022-08-21T06:36:52;100506.09;;;22.96;51.97
73700;BME280;62005;50.082;8.988;2022-08-21T06:39:17;100492.78;;;22.85;52.95
73700;BME280;62005;50.082;8.988;2022-08-21T06:41:43;100496.88;;;22.87;53.12
73700;BME280;62005;50.082;8.988;2022-08-21T06:44:08;100494.22;;;22.82;52.54
73700;BME280;62005;50.082;8.988;2022-08-21T06:46:34;100513.84;;;22.94;52.45
73700;BME280;62005;50.082;8.988;2022-08-21T06:49:00;100491.78;;;22.94;52.97
73700;BME280;62005;50.082;8.988;2022-08-21T06:51:26;100533.66;;;23.34;51.84
73700;BME280;62005;50.082;8.988;2022-08-21T06:53:52;100511.56;;;23.34;51.84
73700;BME280;62005;50.082;8.988;2022-08-21T06:56:19;100534.31;;;23.58;51.38
73700;BME280;62005;50.082;8.988;2022-08-21T06:58:45;100529.91;;;23.70;51.21
73700;BME280;62005;50.082;8.988;2022-08-21T07:01:10;100522.25;;;23.81;50.71
73700;BME280;62005;50.082;8.988;2022-08-21T07:03:41;100514.91;;;23.90;49.86
73700;BME280;62005;50.082;8.988;2022-08-21T07:06:08;100513.09;;;23.99;49.39
73700;BME280;62005;50.082;8.988;2022-08-21T07:08:34;100517.66;;;24.17;49.41
73700;BME280;62005;50.082;8.988;2022-08-21T07:11:02;100518.81;;;24.29;49.05
73700;BME280;62005;50.082;8.988;2022-08-21T07:13:28;100501.78;;;24.36;49.75
73700;BME280;62005;50.082;8.988;2022-08-21T07:15:55;100512.00;;;24.49;49.10
73700;BME280;62005;50.082;8.988;2022-08-21T07:24:15;100507.97;;;24.91;47.94
73700;BME280;62005;50.082;8.988;2022-08-21T07:26:40;100496.00;;;24.95;47.56
73700;BME280;62005;50.082;8.988;2022-08-21T07:29:06;100498.50;;;25.05;47.40
73700;BME280;62005;50.082;8.988;2022-08-21T07:31:31;100500.44;;;25.27;47.65
73700;BME280;62005;50.082;8.988;2022-08-21T07:33:57;100497.72;;;25.35;47.10
73700;BME280;62005;50.082;8.988;2022-08-21T07:36:23;100453.53;;;25.22;47.74
73700;BME280;62005;50.082;8.988;2022-08-21T07:38:49;100493.56;;;25.46;46.17
73700;BME280;62005;50.082;8.988;2022-08-21T07:41:20;100477.75;;;25.38;45.78
73700;BME280;62005;50.082;8.988;2022-08-21T07:43:46;100472.41;;;25.50;46.63
73700;BME280;62005;50.082;8.988;2022-08-21T07:46:12;100488.63;;;25.74;46.19
73700;BME280;62005;50.082;8.988;2022-08-21T07:48:38;100472.19;;;25.78;45.49
73700;BME280;62005;50.082;8.988;2022-08-21T07:51:08;100473.34;;;25.77;45.57
73700;BME280;62005;50.082;8.988;2022-08-21T07:53:35;100481.69;;;25.94;45.45
73700;BME280;62005;50.082;8.988;2022-08-21T07:56:01;100495.78;;;26.06;46.16
73700;BME280;62005;50.082;8.988;2022-08-21T07:58:27;100454.63;;;25.91;45.80
73700;BME280;62005;50.082;8.988;2022-08-21T08:00:52;100465.50;;;26.18;44.65
73700;BME280;62005;50.082;8.988;2022-08-21T08:03:18;100483.78;;;26.36;43.77
73700;BME280;62005;50.082;8.988;2022-08-21T08:05:43;100464.22;;;26.41;45.45
73700;BME280;62005;50.082;8.988;2022-08-21T08:08:08;100463.91;;;26.51;45.47
73700;BME280;62005;50.082;8.988;2022-08-21T08:10:35;100488.22;;;26.79;44.24
73700;BME280;62005;50.082;8.988;2022-08-21T08:13:00;100484.94;;;26.86;43.41
73700;BME280;62005;50.082;8.988;2022-08-21T08:15:27;100483.16;;;26.90;42.98
73700;BME280;62005;50.082;8.988;2022-08-21T08:17:53;100453.44;;;26.65;43.17
73700;BME280;62005;50.082;8.988;2022-08-21T08:20:20;100478.09;;;27.01;44.51
73700;BME280;62005;50.082;8.988;2022-08-21T08:22:46;100448.88;;;26.94;43.05
73700;BME280;62005;50.082;8.988;2022-08-21T08:25:13;100461.56;;;27.21;44.13
73700;BME280;62005;50.082;8.988;2022-08-21T08:27:38;100470.19;;;27.45;42.97
73700;BME280;62005;50.082;8.988;2022-08-21T08:30:05;100465.69;;;27.61;43.12
73700;BME280;62005;50.082;8.988;2022-08-21T08:32:31;100454.91;;;27.68;42.88
73700;BME280;62005;50.082;8.988;2022-08-21T08:34:57;100443.78;;;27.68;43.09
73700;BME280;62005;50.082;8.988;2022-08-21T08:37:22;100448.75;;;27.83;42.10
73700;BME280;62005;50.082;8.988;2022-08-21T08:39:47;100417.09;;;27.76;41.98
73700;BME280;62005;50.082;8.988;2022-08-21T08:42:19;100437.09;;;27.98;41.77
73700;BME280;62005;50.082;8.988;2022-08-21T08:44:47;100435.75;;;28.04;42.08
73700;BME280;62005;50.082;8.988;2022-08-21T08:47:15;100458.44;;;28.36;41.18
73700;BME280;62005;50.082;8.988;2022-08-21T08:52:29;100426.00;;;28.40;40.89
73700;BME280;62005;50.082;8.988;2022-08-21T08:55:05;100440.00;;;28.52;40.62
73700;BME280;62005;50.082;8.988;2022-08-21T08:57:32;100442.78;;;28.52;40.92
73700;BME280;62005;50.082;8.988;2022-08-21T08:59:58;100441.41;;;28.58;40.53
73700;BME280;62005;50.082;8.988;2022-08-21T09:02:24;100442.03;;;28.63;40.55
73700;BME280;62005;50.082;8.988;2022-08-21T09:04:52;100432.84;;;28.63;40.55
73700;BME280;62005;50.082;8.988;2022-08-21T09:07:41;100439.38;;;28.67;39.81
73700;BME280;62005;50.082;8.988;2022-08-21T09:10:23;100401.31;;;28.59;39.38
73700;BME280;62005;50.082;8.988;2022-08-21T09:13:03;100429.66;;;28.73;39.85
73700;BME280;62005;50.082;8.988;2022-08-21T09:15:38;100423.88;;;28.78;40.31
73700;BME280;62005;50.082;8.988;2022-08-21T09:24:40;100422.41;;;29.13;39.89
73700;BME280;62005;50.082;8.988;2022-08-21T09:26:51;100394.97;;;29.03;38.43
73700;BME280;62005;50.082;8.988;2022-08-21T09:29:22;100420.34;;;29.22;38.45
73700;BME280;62005;50.082;8.988;2022-08-21T09:31:49;100418.34;;;29.22;39.46
73700;BME280;62005;50.082;8.988;2022-08-21T09:34:28;100402.81;;;29.21;38.71
73700;BME280;62005;50.082;8.988;2022-08-21T09:36:57;100415.13;;;29.32;37.97
73700;BME280;62005;50.082;8.988;2022-08-21T09:39:37;100400.25;;;29.16;36.70
73700;BME280;62005;50.082;8.988;2022-08-21T09:42:05;100405.41;;;29.06;37.11
73700;BME280;62005;50.082;8.988;2022-08-21T09:44:33;100422.13;;;29.06;37.42
73700;BME280;62005;50.082;8.988;2022-08-21T09:47:01;100416.53;;;29.06;37.44
73700;BME280;62005;50.082;8.988;2022-08-21T09:49:35;100421.44;;;29.09;36.13
73700;BME280;62005;50.082;8.988;2022-08-21T09:52:02;100381.22;;;28.86;36.27
73700;BME280;62005;50.082;8.988;2022-08-21T09:54:35;100420.78;;;29.12;34.57
73700;BME280;62005;50.082;8.988;2022-08-21T09:59:52;100410.31;;;29.09;35.59
73700;BME280;62005;50.082;8.988;2022-08-21T10:02:23;100415.97;;;29.00;34.74
73700;BME280;62005;50.082;8.988;2022-08-21T10:04:51;100381.69;;;28.76;36.18
73700;BME280;62005;50.082;8.988;2022-08-21T10:07:21;100373.06;;;28.69;37.55
73700;BME280;62005;50.082;8.988;2022-08-21T10:09:58;100418.09;;;28.83;35.77
73700;BME280;62005;50.082;8.988;2022-08-21T10:16:01;100405.03;;;28.63;35.78
73700;BME280;62005;50.082;8.988;2022-08-21T10:18:26;100401.19;;;28.55;35.81
73700;BME280;62005;50.082;8.988;2022-08-21T10:21:24;100390.94;;;28.47;35.52
73700;BME280;62005;50.082;8.988;2022-08-21T10:24:12;100381.09;;;28.50;35.99
73700;BME280;62005;50.082;8.988;2022-08-21T10:32:24;100390.97;;;28.80;35.51
73700;BME280;62005;50.082;8.988;2022-08-21T10:35:13;100384.47;;;28.76;34.27
73700;BME280;62005;50.082;8.988;2022-08-21T10:40:27;100392.34;;;28.74;34.90
73700;BME280;62005;50.082;8.988;2022-08-21T10:43:02;100380.03;;;28.75;35.75
73700;BME280;62005;50.082;8.988;2022-08-21T10:48:06;100376.34;;;28.83;34.85
73700;BME280;62005;50.082;8.988;2022-08-21T10:55:55;100364.78;;;28.81;33.56
73700;BME280;62005;50.082;8.988;2022-08-21T10:58:37;100357.06;;;28.66;33.79
73700;BME280;62005;50.082;8.988;2022-08-21T11:07:39;100356.66;;;28.35;34.01
73700;BME280;62005;50.082;8.988;2022-08-21T11:12:47;100352.50;;;28.08;34.58
73700;BME280;62005;50.082;8.988;2022-08-21T11:15:28;100349.25;;;28.06;34.19
73700;BME280;62005;50.082;8.988;2022-08-21T11:18:17;100346.41;;;28.14;34.65
73700;BME280;62005;50.082;8.988;2022-08-21T11:21:03;100339.47;;;28.00;34.37
73700;BME280;62005;50.082;8.988;2022-08-21T11:23:53;100343.81;;;28.09;34.49
73700;BME280;62005;50.082;8.988;2022-08-21T11:29:39;100346.38;;;27.94;35.20
73700;BME280;62005;50.082;8.988;2022-08-21T11:32:23;100339.56;;;27.91;34.87
73700;BME280;62005;50.082;8.988;2022-08-21T11:45:56;100337.72;;;27.95;34.51
73700;BME280;62005;50.082;8.988;2022-08-21T11:51:04;100324.56;;;28.04;35.12
73700;BME280;62005;50.082;8.988;2022-08-21T11:53:46;100324.59;;;28.16;33.78
73700;BME280;62005;50.082;8.988;2022-08-21T11:56:24;100315.41;;;28.25;34.56
73700;BME280;62005;50.082;8.988;2022-08-21T11:58:56;100318.63;;;28.27;34.15
73700;BME280;62005;50.082;8.988;2022-08-21T12:01:27;100311.72;;;28.33;33.48
73700;BME280;62005;50.082;8.988;2022-08-21T12:04:05;100301.72;;;28.32;33.17
73700;BME280;62005;50.082;8.988;2022-08-21T12:06:40;100311.28;;;28.43;33.57
73700;BME280;62005;50.082;8.988;2022-08-21T12:11:46;100299.06;;;28.56;33.46
73700;BME280;62005;50.082;8.988;2022-08-21T12:14:15;100309.78;;;28.66;33.18
73700;BME280;62005;50.082;8.988;2022-08-21T12:16:46;100311.16;;;28.72;32.87
73700;BME280;62005;50.082;8.988;2022-08-21T12:19:27;100306.78;;;28.71;33.14
73700;BME280;62005;50.082;8.988;2022-08-21T12:29:52;100307.03;;;28.90;32.98
73700;BME280;62005;50.082;8.988;2022-08-21T12:32:26;100287.75;;;28.85;32.87
73700;BME280;62005;50.082;8.988;2022-08-21T12:37:43;100290.81;;;29.04;32.91
73700;BME280;62005;50.082;8.988;2022-08-21T12:40:30;100288.00;;;28.92;30.33
73700;BME280;62005;50.082;8.988;2022-08-21T12:42:59;100279.63;;;28.80;30.93
73700;BME280;62005;50.082;8.988;2022-08-21T12:45:32;100295.75;;;28.86;32.92
73700;BME280;62005;50.082;8.988;2022-08-21T12:48:04;100262.91;;;28.56;31.67
73700;BME280;62005;50.082;8.988;2022-08-21T12:50:49;100290.03;;;28.59;30.68
73700;BME280;62005;50.082;8.988;2022-08-21T12:55:53;100270.59;;;28.38;32.10
73700;BME280;62005;50.082;8.988;2022-08-21T12:58:25;100261.31;;;28.34;31.47
73700;BME280;62005;50.082;8.988;2022-08-21T13:01:00;100275.41;;;28.50;32.62
73700;BME280;62005;50.082;8.988;2022-08-21T13:03:26;100295.88;;;28.66;32.51
73700;BME280;62005;50.082;8.988;2022-08-21T13:05:53;100287.97;;;28.68;32.75
73700;BME280;62005;50.082;8.988;2022-08-21T13:08:20;100279.75;;;28.59;32.43
73700;BME280;62005;50.082;8.988;2022-08-21T13:10:49;100277.28;;;28.58;33.12
73700;BME280;62005;50.082;8.988;2022-08-21T13:13:22;100285.16;;;28.56;32.67
73700;BME280;62005;50.082;8.988;2022-08-21T13:15:48;100277.63;;;28.56;32.10
73700;BME280;62005;50.082;8.988;2022-08-21T13:18:23;100277.03;;;28.51;31.85
73700;BME280;62005;50.082;8.988;2022-08-21T13:20:49;100278.03;;;28.46;31.46
73700;BME280;62005;50.082;8.988;2022-08-21T13:23:24;100262.81;;;28.32;31.85
73700;BME280;62005;50.082;8.988;2022-08-21T13:25:50;100276.38;;;28.33;31.98
73700;BME280;62005;50.082;8.988;2022-08-21T13:28:15;100266.50;;;28.24;32.72
73700;BME280;62005;50.082;8.988;2022-08-21T13:30:53;100259.53;;;28.17;31.75
73700;BME280;62005;50.082;8.988;2022-08-21T13:33:24;100276.91;;;28.14;31.63
73700;BME280;62005;50.082;8.988;2022-08-21T13:38:25;100253.63;;;27.98;32.96
73700;BME280;62005;50.082;8.988;2022-08-21T13:40:56;100248.97;;;27.90;33.09
73700;BME280;62005;50.082;8.988;2022-08-21T13:43:26;100253.63;;;27.98;33.11
73700;BME280;62005;50.082;8.988;2022-08-21T13:45:54;100255.72;;;28.01;33.02
73700;BME280;62005;50.082;8.988;2022-08-21T13:48:22;100253.63;;;27.98;33.00
73700;BME280;62005;50.082;8.988;2022-08-21T13:50:48;100260.84;;;27.99;33.07
73700;BME280;62005;50.082;8.988;2022-08-21T13:53:32;100245.09;;;28.03;32.22
73700;BME280;62005;50.082;8.988;2022-08-21T13:55:58;100253.91;;;28.05;32.68
73700;BME280;62005;50.082;8.988;2022-08-21T13:58:28;100257.66;;;28.09;31.96
73700;BME280;62005;50.082;8.988;2022-08-21T14:00:55;100239.28;;;27.96;32.32
73700;BME280;62005;50.082;8.988;2022-08-21T14:03:32;100252.09;;;28.09;31.79
73700;BME280;62005;50.082;8.988;2022-08-21T14:05:58;100250.09;;;28.10;32.73
73700;BME280;62005;50.082;8.988;2022-08-21T14:08:33;100253.22;;;28.08;32.34
73700;BME280;62005;50.082;8.988;2022-08-21T14:11:00;100233.75;;;27.96;32.11
73700;BME280;62005;50.082;8.988;2022-08-21T14:13:33;100240.56;;;27.99;31.55
73700;BME280;62005;50.082;8.988;2022-08-21T14:16:01;100246.00;;;27.95;32.19
73700;BME280;62005;50.082;8.988;2022-08-21T14:18:27;100235.09;;;27.90;32.51